sensor_id;sensor_type;location;lat;lon;timestamp;P1;durP1;ratioP1;P2;durP2;ratioP2
36923;SDS011;22841;50.252;18.688;2022-10-16T00:00:05;24.50;;;13.98;;
36923;SDS011;22841;50.252;18.688;2022-10-16T00:02:31;24.52;;;14.70;;
36923;SDS011;22841;50.252;18.688;2022-10-16T00:04:57;23.52;;;15.13;;
36923;SDS011;22841;50.252;18.688;2022-10-16T00:07:24;26.65;;;14.23;;
36923;SDS011;22841;50.252;18.688;2022-10-16T00:09:50;27.98;;;15.35;;
36923;SDS011;22841;50.252;18.688;2022-10-16T00:12:16;25.55;;;16.27;;
36923;SDS011;22841;50.252;18.688;2022-10-16T00:14:42;24.67;;;15.23;;
36923;SDS011;22841;50.252;18.688;2022-10-16T00:17:09;23.38;;;15.68;;
36923;SDS011;22841;50.252;18.688;2022-10-16T00:19:35;33.78;;;15.38;;
36923;SDS011;22841;50.252;18.688;2022-10-16T00:22:01;26.85;;;14.90;;
36923;SDS011;22841;50.252;18.688;2022-10-16T00:24:30;26.42;;;15.95;;
36923;SDS011;22841;50.252;18.688;2022-10-16T00:26:56;24.52;;;16.25;;
36923;SDS011;22841;50.252;18.688;2022-10-16T00:29:22;36.47;;;18.55;;
36923;SDS011;22841;50.252;18.688;2022-10-16T00:31:48;25.73;;;16.60;;
36923;SDS011;22841;50.252;18.688;2022-10-16T00:34:15;33.00;;;19.25;;
36923;SDS011;22841;50.252;18.688;2022-10-16T00:36:41;35.15;;;17.33;;
36923;SDS011;22841;50.252;18.688;2022-10-16T00:39:07;25.80;;;17.08;;
36923;SDS011;22841;50.252;18.688;2022-10-16T00:41:33;27.58;;;16.90;;
36923;SDS011;22841;50.252;18.688;2022-10-16T00:44:00;27.75;;;16.77;;
36923;SDS011;22841;50.252;18.688;2022-10-16T00:46:35;23.03;;;15.83;;
36923;SDS011;22841;50.252;18.688;2022-10-16T00:49:12;26.13;;;16.33;;
36923;SDS011;22841;50.252;18.688;2022-10-16T00:54:21;28.55;;;16.20;;
36923;SDS011;22841;50.252;18.688;2022-10-16T00:56:50;21.15;;;15.57;;
36923;SDS011;22841;50.252;18.688;2022-10-16T00:59:25;25.13;;;16.00;;
36923;SDS011;22841;50.252;18.688;2022-10-16T01:01:54;30.00;;;16.10;;
36923;SDS011;22841;50.252;18.688;2022-10-16T01:04:22;27.27;;;17.42;;
36923;SDS011;22841;50.252;18.688;2022-10-16T01:09:26;30.50;;;18.35;;
36923;SDS011;22841;50.252;18.688;2022-10-16T01:12:18;25.63;;;17.45;;
36923;SDS011;22841;50.252;18.688;2022-10-16T01:15:01;31.80;;;17.75;;
36923;SDS011;22841;50.252;18.688;2022-10-16T01:25:53;30.70;;;17.35;;
36923;SDS011;22841;50.252;18.688;2022-10-16T01:31:19;47.25;;;19.77;;
36923;SDS011;22841;50.252;18.688;2022-10-16T01:33:55;43.80;;;17.85;;
36923;SDS011;22841;50.252;18.688;2022-10-16T01:36:33;29.17;;;18.33;;
36923;SDS011;22841;50.252;18.688;2022-10-16T01:39:04;30.60;;;17.80;;
36923;SDS011;22841;50.252;18.688;2022-10-16T01:41:45;30.70;;;18.80;;
36923;SDS011;22841;50.252;18.688;2022-10-16T01:44:32;31.00;;;18.00;;
36923;SDS011;22841;50.252;18.688;2022-10-16T01:47:01;38.38;;;20.13;;
36923;SDS011;22841;50.252;18.688;2022-10-16T01:49:30;33.30;;;20.05;;
36923;SDS011;22841;50.252;18.688;2022-10-16T01:51:59;32.03;;;19.30;;
36923;SDS011;22841;50.252;18.688;2022-10-16T01:54:30;36.22;;;19.02;;
36923;SDS011;22841;50.252;18.688;2022-10-16T01:57:03;32.25;;;20.58;;
36923;SDS011;22841;50.252;18.688;2022-10-16T01:59:31;43.90;;;20.85;;
36923;SDS011;22841;50.252;18.688;2022-10-16T02:02:04;33.42;;;19.30;;
36923;SDS011;22841;50.252;18.688;2022-10-16T02:04:36;35.17;;;20.08;;
36923;SDS011;22841;50.252;18.688;2022-10-16T02:07:04;31.77;;;17.25;;
36923;SDS011;22841;50.252;18.688;2022-10-16T02:09:33;32.55;;;17.98;;
36923;SDS011;22841;50.252;18.688;2022-10-16T02:12:01;27.70;;;18.15;;
36923;SDS011;22841;50.252;18.688;2022-10-16T02:14:34;38.13;;;18.73;;
36923;SDS011;22841;50.252;18.688;2022-10-16T02:17:09;43.33;;;19.23;;
36923;SDS011;22841;50.252;18.688;2022-10-16T02:19:37;28.70;;;18.25;;
36923;SDS011;22841;50.252;18.688;2022-10-16T02:22:04;29.33;;;18.35;;
36923;SDS011;22841;50.252;18.688;2022-10-16T02:32:52;28.80;;;17.30;;
36923;SDS011;22841;50.252;18.688;2022-10-16T02:35:20;33.47;;;16.75;;
36923;SDS011;22841;50.252;18.688;2022-10-16T02:37:49;29.38;;;17.75;;
36923;SDS011;22841;50.252;18.688;2022-10-16T02:40:17;36.55;;;16.77;;
36923;SDS011;22841;50.252;18.688;2022-10-16T02:42:49;32.97;;;18.05;;
36923;SDS011;22841;50.252;18.688;2022-10-16T02:47:43;27.33;;;17.13;;
36923;SDS011;22841;50.252;18.688;2022-10-16T02:50:09;39.20;;;17.40;;
36923;SDS011;22841;50.252;18.688;2022-10-16T02:52:35;33.45;;;17.35;;
36923;SDS011;22841;50.252;18.688;2022-10-16T02:55:02;41.75;;;18.35;;
36923;SDS011;22841;50.252;18.688;2022-10-16T02:57:28;32.17;;;17.45;;
36923;SDS011;22841;50.252;18.688;2022-10-16T02:59:55;29.80;;;16.63;;
36923;SDS011;22841;50.252;18.688;2022-10-16T03:02:21;32.72;;;17.58;;
36923;SDS011;22841;50.252;18.688;2022-10-16T03:04:47;29.30;;;17.83;;
36923;SDS011;22841;50.252;18.688;2022-10-16T03:07:13;30.83;;;18.30;;
36923;SDS011;22841;50.252;18.688;2022-10-16T03:09:39;31.50;;;19.02;;
36923;SDS011;22841;50.252;18.688;2022-10-16T03:12:06;36.13;;;19.38;;
36923;SDS011;22841;50.252;18.688;2022-10-16T03:14:32;36.40;;;18.33;;
36923;SDS011;22841;50.252;18.688;2022-10-16T03:16:58;38.65;;;18.63;;
36923;SDS011;22841;50.252;18.688;2022-10-16T03:19:25;26.73;;;18.23;;
36923;SDS011;22841;50.252;18.688;2022-10-16T03:21:51;29.10;;;18.00;;
36923;SDS011;22841;50.252;18.688;2022-10-16T03:24:17;31.70;;;19.27;;
36923;SDS011;22841;50.252;18.688;2022-10-16T03:26:43;30.80;;;17.98;;
36923;SDS011;22841;50.252;18.688;2022-10-16T03:29:09;35.33;;;19.88;;
36923;SDS011;22841;50.252;18.688;2022-10-16T03:31:35;31.25;;;17.17;;
36923;SDS011;22841;50.252;18.688;2022-10-16T03:34:01;29.83;;;18.08;;
36923;SDS011;22841;50.252;18.688;2022-10-16T03:36:28;30.77;;;17.90;;
36923;SDS011;22841;50.252;18.688;2022-10-16T03:38:54;37.22;;;17.40;;
36923;SDS011;22841;50.252;18.688;2022-10-16T03:41:20;29.05;;;17.20;;
36923;SDS011;22841;50.252;18.688;2022-10-16T03:43:46;34.33;;;15.95;;
36923;SDS011;22841;50.252;18.688;2022-10-16T03:46:12;48.85;;;17.98;;
36923;SDS011;22841;50.252;18.688;2022-10-16T03:48:38;29.55;;;16.90;;
36923;SDS011;22841;50.252;18.688;2022-10-16T03:51:05;28.75;;;17.13;;
36923;SDS011;22841;50.252;18.688;2022-10-16T03:53:31;26.38;;;16.27;;
36923;SDS011;22841;50.252;18.688;2022-10-16T03:55:58;29.48;;;17.42;;
36923;SDS011;22841;50.252;18.688;2022-10-16T03:58:24;32.85;;;17.02;;
36923;SDS011;22841;50.252;18.688;2022-10-16T04:00:50;28.60;;;18.27;;
36923;SDS011;22841;50.252;18.688;2022-10-16T04:03:16;32.13;;;18.25;;
36923;SDS011;22841;50.252;18.688;2022-10-16T04:05:44;35.78;;;19.05;;
36923;SDS011;22841;50.252;18.688;2022-10-16T04:08:10;31.20;;;19.13;;
36923;SDS011;22841;50.252;18.688;2022-10-16T04:10:36;30.02;;;18.02;;
36923;SDS011;22841;50.252;18.688;2022-10-16T04:13:02;30.25;;;17.75;;
36923;SDS011;22841;50.252;18.688;2022-10-16T04:15:29;32.55;;;17.70;;
36923;SDS011;22841;50.252;18.688;2022-10-16T04:17:55;32.00;;;18.30;;
36923;SDS011;22841;50.252;18.688;2022-10-16T04:20:21;30.98;;;17.27;;
36923;SDS011;22841;50.252;18.688;2022-10-16T04:22:47;34.90;;;16.27;;
36923;SDS011;22841;50.252;18.688;2022-10-16T04:25:13;35.05;;;18.23;;
36923;SDS011;22841;50.252;18.688;2022-10-16T04:27:40;32.75;;;16.88;;
36923;SDS011;22841;50.252;18.688;2022-10-16T04:30:06;33.17;;;18.02;;
36923;SDS011;22841;50.252;18.688;2022-10-16T04:32:32;33.10;;;17.38;;
36923;SDS011;22841;50.252;18.688;2022-10-16T04:34:59;31.63;;;17.45;;
36923;SDS011;22841;50.252;18.688;2022-10-16T04:37:25;33.75;;;18.08;;
36923;SDS011;22841;50.252;18.688;2022-10-16T04:39:52;32.35;;;18.52;;
36923;SDS011;22841;50.252;18.688;2022-10-16T04:42:19;32.60;;;19.02;;
36923;SDS011;22841;50.252;18.688;2022-10-16T04:44:46;32.35;;;20.35;;
36923;SDS011;22841;50.252;18.688;2022-10-16T04:47:12;35.22;;;21.45;;
36923;SDS011;22841;50.252;18.688;2022-10-16T04:49:39;39.45;;;20.30;;
36923;SDS011;22841;50.252;18.688;2022-10-16T04:52:05;38.00;;;20.80;;
36923;SDS011;22841;50.252;18.688;2022-10-16T04:54:31;38.97;;;22.10;;
36923;SDS011;22841;50.252;18.688;2022-10-16T04:56:58;44.00;;;20.02;;
36923;SDS011;22841;50.252;18.688;2022-10-16T04:59:24;38.90;;;22.25;;
36923;SDS011;22841;50.252;18.688;2022-10-16T05:01:50;36.22;;;21.80;;
36923;SDS011;22841;50.252;18.688;2022-10-16T05:04:16;37.00;;;20.00;;
36923;SDS011;22841;50.252;18.688;2022-10-16T05:06:43;37.72;;;20.08;;
36923;SDS011;22841;50.252;18.688;2022-10-16T05:09:09;37.17;;;20.08;;
36923;SDS011;22841;50.252;18.688;2022-10-16T05:11:35;33.10;;;19.88;;
36923;SDS011;22841;50.252;18.688;2022-10-16T05:14:02;40.72;;;21.25;;
36923;SDS011;22841;50.252;18.688;2022-10-16T05:16:28;41.10;;;20.38;;
36923;SDS011;22841;50.252;18.688;2022-10-16T05:18:56;37.53;;;19.70;;
36923;SDS011;22841;50.252;18.688;2022-10-16T05:21:22;34.55;;;20.77;;
36923;SDS011;22841;50.252;18.688;2022-10-16T05:23:49;41.28;;;20.92;;
36923;SDS011;22841;50.252;18.688;2022-10-16T05:26:15;39.05;;;21.35;;
36923;SDS011;22841;50.252;18.688;2022-10-16T05:28:41;53.13;;;22.58;;
36923;SDS011;22841;50.252;18.688;2022-10-16T05:31:08;34.97;;;21.45;;
36923;SDS011;22841;50.252;18.688;2022-10-16T05:33:35;35.22;;;20.30;;
36923;SDS011;22841;50.252;18.688;2022-10-16T05:36:02;38.15;;;21.27;;
36923;SDS011;22841;50.252;18.688;2022-10-16T05:38:29;37.92;;;20.23;;
36923;SDS011;22841;50.252;18.688;2022-10-16T05:40:55;44.55;;;20.83;;
36923;SDS011;22841;50.252;18.688;2022-10-16T05:43:22;42.33;;;19.73;;
36923;SDS011;22841;50.252;18.688;2022-10-16T05:45:58;45.25;;;21.15;;
36923;SDS011;22841;50.252;18.688;2022-10-16T05:48:29;32.13;;;19.70;;
36923;SDS011;22841;50.252;18.688;2022-10-16T05:51:00;33.92;;;20.08;;
36923;SDS011;22841;50.252;18.688;2022-10-16T05:53:32;33.00;;;20.35;;
36923;SDS011;22841;50.252;18.688;2022-10-16T05:56:00;43.25;;;21.33;;
36923;SDS011;22841;50.252;18.688;2022-10-16T05:58:31;38.75;;;22.35;;
36923;SDS011;22841;50.252;18.688;2022-10-16T06:01:02;37.60;;;20.83;;
36923;SDS011;22841;50.252;18.688;2022-10-16T06:03:33;29.70;;;19.63;;
36923;SDS011;22841;50.252;18.688;2022-10-16T06:06:06;33.83;;;19.95;;
36923;SDS011;22841;50.252;18.688;2022-10-16T06:08:37;36.13;;;20.85;;
36923;SDS011;22841;50.252;18.688;2022-10-16T06:11:04;43.85;;;20.80;;
36923;SDS011;22841;50.252;18.688;2022-10-16T06:13:32;35.80;;;21.63;;
36923;SDS011;22841;50.252;18.688;2022-10-16T06:15:59;36.30;;;20.90;;
36923;SDS011;22841;50.252;18.688;2022-10-16T06:18:26;48.13;;;22.70;;
36923;SDS011;22841;50.252;18.688;2022-10-16T06:20:53;43.33;;;22.80;;
36923;SDS011;22841;50.252;18.688;2022-10-16T06:23:20;39.92;;;22.13;;
36923;SDS011;22841;50.252;18.688;2022-10-16T06:25:46;38.05;;;22.25;;
36923;SDS011;22841;50.252;18.688;2022-10-16T06:28:13;43.08;;;20.70;;
36923;SDS011;22841;50.252;18.688;2022-10-16T06:30:40;35.72;;;19.77;;
36923;SDS011;22841;50.252;18.688;2022-10-16T06:33:10;36.05;;;19.92;;
36923;SDS011;22841;50.252;18.688;2022-10-16T06:35:36;41.15;;;20.27;;
36923;SDS011;22841;50.252;18.688;2022-10-16T06:38:02;53.58;;;21.45;;
36923;SDS011;22841;50.252;18.688;2022-10-16T06:40:30;30.35;;;18.92;;
36923;SDS011;22841;50.252;18.688;2022-10-16T06:42:56;40.60;;;21.15;;
36923;SDS011;22841;50.252;18.688;2022-10-16T06:45:22;39.00;;;20.98;;
36923;SDS011;22841;50.252;18.688;2022-10-16T06:47:49;41.65;;;21.63;;
36923;SDS011;22841;50.252;18.688;2022-10-16T06:50:15;39.28;;;21.25;;
36923;SDS011;22841;50.252;18.688;2022-10-16T06:52:41;38.50;;;22.35;;
36923;SDS011;22841;50.252;18.688;2022-10-16T06:55:07;40.83;;;22.67;;
36923;SDS011;22841;50.252;18.688;2022-10-16T06:57:33;47.78;;;23.02;;
36923;SDS011;22841;50.252;18.688;2022-10-16T06:59:59;39.35;;;21.00;;
36923;SDS011;22841;50.252;18.688;2022-10-16T07:02:27;45.28;;;21.45;;
36923;SDS011;22841;50.252;18.688;2022-10-16T07:04:53;45.25;;;22.02;;
36923;SDS011;22841;50.252;18.688;2022-10-16T07:07:19;46.13;;;22.17;;
36923;SDS011;22841;50.252;18.688;2022-10-16T07:09:45;45.75;;;23.50;;
36923;SDS011;22841;50.252;18.688;2022-10-16T07:12:11;54.33;;;24.05;;
36923;SDS011;22841;50.252;18.688;2022-10-16T07:14:37;39.90;;;20.75;;
36923;SDS011;22841;50.252;18.688;2022-10-16T07:17:03;44.47;;;20.30;;
36923;SDS011;22841;50.252;18.688;2022-10-16T07:19:29;35.92;;;18.98;;
36923;SDS011;22841;50.252;18.688;2022-10-16T07:21:55;44.05;;;21.00;;
36923;SDS011;22841;50.252;18.688;2022-10-16T07:24:22;38.35;;;19.40;;
36923;SDS011;22841;50.252;18.688;2022-10-16T07:26:48;33.92;;;17.90;;
36923;SDS011;22841;50.252;18.688;2022-10-16T07:29:16;30.88;;;17.65;;
36923;SDS011;22841;50.252;18.688;2022-10-16T07:31:44;35.60;;;17.88;;
36923;SDS011;22841;50.252;18.688;2022-10-16T07:34:11;29.42;;;16.55;;
36923;SDS011;22841;50.252;18.688;2022-10-16T07:36:39;31.90;;;16.30;;
36923;SDS011;22841;50.252;18.688;2022-10-16T07:39:05;30.20;;;16.58;;
36923;SDS011;22841;50.252;18.688;2022-10-16T07:41:31;28.75;;;16.00;;
36923;SDS011;22841;50.252;18.688;2022-10-16T07:43:58;28.77;;;16.80;;
36923;SDS011;22841;50.252;18.688;2022-10-16T07:46:26;29.95;;;14.77;;
36923;SDS011;22841;50.252;18.688;2022-10-16T07:48:52;34.50;;;17.00;;
36923;SDS011;22841;50.252;18.688;2022-10-16T07:51:19;31.98;;;15.82;;
36923;SDS011;22841;50.252;18.688;2022-10-16T07:53:47;39.63;;;16.48;;
36923;SDS011;22841;50.252;18.688;2022-10-16T07:56:14;30.40;;;16.40;;
36923;SDS011;22841;50.252;18.688;2022-10-16T07:58:42;26.83;;;15.20;;
36923;SDS011;22841;50.252;18.688;2022-10-16T08:01:11;36.92;;;15.13;;
36923;SDS011;22841;50.252;18.688;2022-10-16T08:03:41;24.20;;;16.00;;
36923;SDS011;22841;50.252;18.688;2022-10-16T08:06:09;25.83;;;14.30;;
36923;SDS011;22841;50.252;18.688;2022-10-16T08:08:36;26.77;;;14.13;;
36923;SDS011;22841;50.252;18.688;2022-10-16T08:11:02;23.15;;;14.73;;
36923;SDS011;22841;50.252;18.688;2022-10-16T08:13:31;25.10;;;14.27;;
36923;SDS011;22841;50.252;18.688;2022-10-16T08:15:57;21.77;;;13.63;;
36923;SDS011;22841;50.252;18.688;2022-10-16T08:18:24;28.30;;;14.32;;
36923;SDS011;22841;50.252;18.688;2022-10-16T08:20:57;30.35;;;14.50;;
36923;SDS011;22841;50.252;18.688;2022-10-16T08:23:25;23.90;;;13.93;;
36923;SDS011;22841;50.252;18.688;2022-10-16T08:25:54;22.08;;;12.90;;
36923;SDS011;22841;50.252;18.688;2022-10-16T08:28:21;21.38;;;13.43;;
36923;SDS011;22841;50.252;18.688;2022-10-16T08:30:48;24.00;;;12.77;;
36923;SDS011;22841;50.252;18.688;2022-10-16T08:33:14;26.67;;;14.07;;
36923;SDS011;22841;50.252;18.688;2022-10-16T08:35:40;27.73;;;14.50;;
36923;SDS011;22841;50.252;18.688;2022-10-16T08:38:06;19.42;;;13.10;;
36923;SDS011;22841;50.252;18.688;2022-10-16T08:40:33;31.52;;;13.05;;
36923;SDS011;22841;50.252;18.688;2022-10-16T08:46:04;22.27;;;13.63;;
36923;SDS011;22841;50.252;18.688;2022-10-16T08:48:45;26.63;;;13.88;;
36923;SDS011;22841;50.252;18.688;2022-10-16T08:51:14;21.90;;;13.00;;
36923;SDS011;22841;50.252;18.688;2022-10-16T08:56:17;20.27;;;12.73;;
36923;SDS011;22841;50.252;18.688;2022-10-16T08:58:44;29.25;;;12.90;;
36923;SDS011;22841;50.252;18.688;2022-10-16T09:01:16;20.92;;;13.43;;
36923;SDS011;22841;50.252;18.688;2022-10-16T09:04:21;18.45;;;12.32;;
36923;SDS011;22841;50.252;18.688;2022-10-16T09:07:18;21.88;;;13.30;;
36923;SDS011;22841;50.252;18.688;2022-10-16T09:10:46;21.00;;;11.90;;
36923;SDS011;22841;50.252;18.688;2022-10-16T09:13:13;21.33;;;12.75;;
36923;SDS011;22841;50.252;18.688;2022-10-16T09:19:05;20.85;;;11.60;;
36923;SDS011;22841;50.252;18.688;2022-10-16T09:21:43;18.05;;;11.90;;
36923;SDS011;22841;50.252;18.688;2022-10-16T09:24:14;19.60;;;11.83;;
36923;SDS011;22841;50.252;18.688;2022-10-16T09:26:42;20.73;;;12.07;;
36923;SDS011;22841;50.252;18.688;2022-10-16T09:29:11;19.88;;;12.43;;
36923;SDS011;22841;50.252;18.688;2022-10-16T09:31:38;21.80;;;11.95;;
36923;SDS011;22841;50.252;18.688;2022-10-16T09:34:05;31.45;;;12.23;;
36923;SDS011;22841;50.252;18.688;2022-10-16T09:36:42;20.10;;;12.13;;
36923;SDS011;22841;50.252;18.688;2022-10-16T09:39:10;26.83;;;12.88;;
36923;SDS011;22841;50.252;18.688;2022-10-16T09:41:38;20.13;;;12.25;;
36923;SDS011;22841;50.252;18.688;2022-10-16T09:44:21;23.73;;;12.30;;
36923;SDS011;22841;50.252;18.688;2022-10-16T09:49:49;24.63;;;13.75;;
36923;SDS011;22841;50.252;18.688;2022-10-16T09:52:20;20.52;;;13.55;;
36923;SDS011;22841;50.252;18.688;2022-10-16T09:54:49;22.75;;;12.73;;
36923;SDS011;22841;50.252;18.688;2022-10-16T09:57:23;27.35;;;13.07;;
36923;SDS011;22841;50.252;18.688;2022-10-16T09:59:53;23.35;;;13.82;;
36923;SDS011;22841;50.252;18.688;2022-10-16T10:02:31;23.73;;;11.57;;
36923;SDS011;22841;50.252;18.688;2022-10-16T10:05:01;18.95;;;11.65;;
36923;SDS011;22841;50.252;18.688;2022-10-16T10:07:30;19.02;;;11.90;;
36923;SDS011;22841;50.252;18.688;2022-10-16T10:09:59;18.00;;;10.55;;
36923;SDS011;22841;50.252;18.688;2022-10-16T10:12:30;15.98;;;11.70;;
36923;SDS011;22841;50.252;18.688;2022-10-16T10:15:03;16.85;;;11.13;;
36923;SDS011;22841;50.252;18.688;2022-10-16T10:17:32;21.67;;;10.10;;
36923;SDS011;22841;50.252;18.688;2022-10-16T10:19:59;15.82;;;10.18;;
36923;SDS011;22841;50.252;18.688;2022-10-16T10:36:10;16.15;;;11.25;;
36923;SDS011;22841;50.252;18.688;2022-10-16T10:38:54;23.70;;;11.18;;
36923;SDS011;22841;50.252;18.688;2022-10-16T10:43:58;20.88;;;10.88;;
36923;SDS011;22841;50.252;18.688;2022-10-16T10:46:32;19.27;;;10.40;;
36923;SDS011;22841;50.252;18.688;2022-10-16T10:56:52;15.10;;;10.32;;
36923;SDS011;22841;50.252;18.688;2022-10-16T11:02:33;19.20;;;10.32;;
36923;SDS011;22841;50.252;18.688;2022-10-16T11:05:52;17.08;;;10.30;;
36923;SDS011;22841;50.252;18.688;2022-10-16T11:08:06;19.35;;;10.23;;
36923;SDS011;22841;50.252;18.688;2022-10-16T11:10:54;17.30;;;10.65;;
36923;SDS011;22841;50.252;18.688;2022-10-16T11:13:31;16.27;;;10.07;;
36923;SDS011;22841;50.252;18.688;2022-10-16T11:16:21;15.33;;;10.90;;
36923;SDS011;22841;50.252;18.688;2022-10-16T11:24:58;26.27;;;10.40;;
36923;SDS011;22841;50.252;18.688;2022-10-16T11:27:34;25.52;;;10.38;;
36923;SDS011;22841;50.252;18.688;2022-10-16T11:30:05;18.10;;;9.43;;
36923;SDS011;22841;50.252;18.688;2022-10-16T11:35:25;17.60;;;10.30;;
36923;SDS011;22841;50.252;18.688;2022-10-16T11:37:56;22.30;;;10.32;;
36923;SDS011;22841;50.252;18.688;2022-10-16T11:45:54;18.52;;;11.02;;
36923;SDS011;22841;50.252;18.688;2022-10-16T11:48:24;22.98;;;10.20;;
36923;SDS011;22841;50.252;18.688;2022-10-16T11:51:09;17.98;;;11.18;;
36923;SDS011;22841;50.252;18.688;2022-10-16T11:56:20;22.67;;;10.82;;
36923;SDS011;22841;50.252;18.688;2022-10-16T11:58:51;18.00;;;10.40;;
36923;SDS011;22841;50.252;18.688;2022-10-16T12:01:46;22.20;;;10.20;;
36923;SDS011;22841;50.252;18.688;2022-10-16T12:04:23;21.20;;;11.15;;
36923;SDS011;22841;50.252;18.688;2022-10-16T12:07:16;39.28;;;10.80;;
36923;SDS011;22841;50.252;18.688;2022-10-16T12:09:47;17.40;;;9.77;;
36923;SDS011;22841;50.252;18.688;2022-10-16T12:12:26;36.45;;;12.23;;
36923;SDS011;22841;50.252;18.688;2022-10-16T12:15:15;19.90;;;9.95;;
36923;SDS011;22841;50.252;18.688;2022-10-16T12:17:46;15.48;;;10.13;;
36923;SDS011;22841;50.252;18.688;2022-10-16T12:22:54;15.02;;;9.70;;
36923;SDS011;22841;50.252;18.688;2022-10-16T12:30:28;16.65;;;9.43;;
36923;SDS011;22841;50.252;18.688;2022-10-16T12:32:57;15.20;;;10.00;;
36923;SDS011;22841;50.252;18.688;2022-10-16T12:35:33;18.35;;;9.65;;
36923;SDS011;22841;50.252;18.688;2022-10-16T12:38:15;16.10;;;8.98;;
36923;SDS011;22841;50.252;18.688;2022-10-16T12:40:42;18.75;;;10.10;;
36923;SDS011;22841;50.252;18.688;2022-10-16T12:46:04;16.73;;;10.30;;
36923;SDS011;22841;50.252;18.688;2022-10-16T12:48:46;16.60;;;11.23;;
36923;SDS011;22841;50.252;18.688;2022-10-16T12:54:02;15.70;;;11.30;;
36923;SDS011;22841;50.252;18.688;2022-10-16T12:56:37;19.20;;;9.65;;
36923;SDS011;22841;50.252;18.688;2022-10-16T13:11:05;25.25;;;11.25;;
36923;SDS011;22841;50.252;18.688;2022-10-16T13:21:51;16.80;;;9.82;;
36923;SDS011;22841;50.252;18.688;2022-10-16T13:25:02;14.02;;;9.85;;
36923;SDS011;22841;50.252;18.688;2022-10-16T13:27:50;18.23;;;9.52;;
36923;SDS011;22841;50.252;18.688;2022-10-16T13:30:54;17.42;;;9.73;;
36923;SDS011;22841;50.252;18.688;2022-10-16T13:33:33;19.63;;;10.50;;
36923;SDS011;22841;50.252;18.688;2022-10-16T13:36:02;20.98;;;10.50;;
36923;SDS011;22841;50.252;18.688;2022-10-16T13:38:33;20.20;;;10.27;;
36923;SDS011;22841;50.252;18.688;2022-10-16T13:41:02;15.88;;;11.60;;
36923;SDS011;22841;50.252;18.688;2022-10-16T13:46:06;16.70;;;10.48;;
36923;SDS011;22841;50.252;18.688;2022-10-16T13:48:37;18.10;;;10.95;;
36923;SDS011;22841;50.252;18.688;2022-10-16T13:53:38;24.20;;;10.82;;
36923;SDS011;22841;50.252;18.688;2022-10-16T13:56:06;20.05;;;11.13;;
36923;SDS011;22841;50.252;18.688;2022-10-16T13:58:36;18.80;;;11.30;;
36923;SDS011;22841;50.252;18.688;2022-10-16T14:01:24;26.17;;;11.50;;
36923;SDS011;22841;50.252;18.688;2022-10-16T14:03:50;15.70;;;10.10;;
36923;SDS011;22841;50.252;18.688;2022-10-16T14:06:20;17.50;;;11.45;;
36923;SDS011;22841;50.252;18.688;2022-10-16T14:08:57;17.45;;;11.07;;
36923;SDS011;22841;50.252;18.688;2022-10-16T14:11:46;18.52;;;10.38;;
36923;SDS011;22841;50.252;18.688;2022-10-16T14:14:14;16.67;;;11.18;;
36923;SDS011;22841;50.252;18.688;2022-10-16T14:16:41;15.07;;;10.43;;
36923;SDS011;22841;50.252;18.688;2022-10-16T14:19:18;14.45;;;11.15;;
36923;SDS011;22841;50.252;18.688;2022-10-16T14:21:50;20.73;;;10.75;;
36923;SDS011;22841;50.252;18.688;2022-10-16T14:24:23;16.20;;;10.40;;
36923;SDS011;22841;50.252;18.688;2022-10-16T14:26:52;20.85;;;10.68;;
36923;SDS011;22841;50.252;18.688;2022-10-16T14:29:22;21.55;;;11.07;;
36923;SDS011;22841;50.252;18.688;2022-10-16T14:34:36;14.85;;;10.50;;
36923;SDS011;22841;50.252;18.688;2022-10-16T14:37:06;18.00;;;11.40;;
36923;SDS011;22841;50.252;18.688;2022-10-16T14:39:40;21.98;;;11.38;;
36923;SDS011;22841;50.252;18.688;2022-10-16T14:42:14;23.30;;;10.68;;
36923;SDS011;22841;50.252;18.688;2022-10-16T14:44:43;23.30;;;11.43;;
36923;SDS011;22841;50.252;18.688;2022-10-16T14:47:10;21.67;;;12.13;;
36923;SDS011;22841;50.252;18.688;2022-10-16T14:49:41;16.50;;;11.13;;
36923;SDS011;22841;50.252;18.688;2022-10-16T14:52:11;22.83;;;11.10;;
36923;SDS011;22841;50.252;18.688;2022-10-16T14:54:37;15.43;;;11.15;;
36923;SDS011;22841;50.252;18.688;2022-10-16T14:57:04;19.08;;;11.45;;
36923;SDS011;22841;50.252;18.688;2022-10-16T14:59:35;20.88;;;12.75;;
36923;SDS011;22841;50.252;18.688;2022-10-16T15:04:52;76.78;;;14.52;;
36923;SDS011;22841;50.252;18.688;2022-10-16T15:07:18;18.42;;;11.45;;
36923;SDS011;22841;50.252;18.688;2022-10-16T15:09:46;17.48;;;11.45;;
36923;SDS011;22841;50.252;18.688;2022-10-16T15:12:12;24.80;;;12.30;;
36923;SDS011;22841;50.252;18.688;2022-10-16T15:14:38;18.90;;;11.80;;
36923;SDS011;22841;50.252;18.688;2022-10-16T15:17:04;31.17;;;11.60;;
36923;SDS011;22841;50.252;18.688;2022-10-16T15:19:30;16.50;;;12.38;;
36923;SDS011;22841;50.252;18.688;2022-10-16T15:21:56;24.52;;;12.25;;
36923;SDS011;22841;50.252;18.688;2022-10-16T15:24:23;19.58;;;11.93;;
36923;SDS011;22841;50.252;18.688;2022-10-16T15:26:49;22.70;;;13.02;;
36923;SDS011;22841;50.252;18.688;2022-10-16T15:29:15;18.83;;;12.93;;
36923;SDS011;22841;50.252;18.688;2022-10-16T15:31:41;18.05;;;11.82;;
36923;SDS011;22841;50.252;18.688;2022-10-16T15:34:08;20.65;;;13.15;;
36923;SDS011;22841;50.252;18.688;2022-10-16T15:36:36;20.50;;;14.05;;
36923;SDS011;22841;50.252;18.688;2022-10-16T15:39:04;39.10;;;13.45;;
36923;SDS011;22841;50.252;18.688;2022-10-16T15:41:50;27.10;;;13.85;;
36923;SDS011;22841;50.252;18.688;2022-10-16T15:44:18;18.85;;;13.02;;
36923;SDS011;22841;50.252;18.688;2022-10-16T15:46:46;23.13;;;13.00;;
36923;SDS011;22841;50.252;18.688;2022-10-16T15:49:12;20.90;;;13.52;;
36923;SDS011;22841;50.252;18.688;2022-10-16T15:51:39;23.92;;;13.02;;
36923;SDS011;22841;50.252;18.688;2022-10-16T15:54:07;32.95;;;14.68;;
36923;SDS011;22841;50.252;18.688;2022-10-16T15:56:33;23.35;;;13.82;;
36923;SDS011;22841;50.252;18.688;2022-10-16T15:59:02;36.65;;;15.18;;
36923;SDS011;22841;50.252;18.688;2022-10-16T16:01:31;23.55;;;15.32;;
36923;SDS011;22841;50.252;18.688;2022-10-16T16:04:01;20.95;;;14.93;;
36923;SDS011;22841;50.252;18.688;2022-10-16T16:06:27;25.05;;;15.57;;
36923;SDS011;22841;50.252;18.688;2022-10-16T16:08:53;22.10;;;15.57;;
36923;SDS011;22841;50.252;18.688;2022-10-16T16:11:20;26.95;;;16.13;;
36923;SDS011;22841;50.252;18.688;2022-10-16T16:13:48;30.48;;;17.02;;
36923;SDS011;22841;50.252;18.688;2022-10-16T16:16:15;20.52;;;14.63;;
36923;SDS011;22841;50.252;18.688;2022-10-16T16:18:43;24.38;;;15.43;;
36923;SDS011;22841;50.252;18.688;2022-10-16T16:21:12;29.70;;;16.77;;
36923;SDS011;22841;50.252;18.688;2022-10-16T16:23:38;24.58;;;16.02;;
36923;SDS011;22841;50.252;18.688;2022-10-16T16:26:06;26.08;;;15.40;;
36923;SDS011;22841;50.252;18.688;2022-10-16T16:28:33;25.15;;;14.68;;
36923;SDS011;22841;50.252;18.688;2022-10-16T16:30:59;29.90;;;16.38;;